Eatonville, Washington
Current Conditions -  °F | °C
As of 2:58 PM on Monday 24 Nov 2014 (Local Time) from KGRF Reporting Station
Drizzle Drizzle  
Wind Chill: 48°   Ceiling: Unl
Heat Index: 48°   Visibility: 10mi
Dew Point: 47°   Wind: 2mph
Humidity: 97%   Direction: NA
Pressure: 30.21"   Gusts: NA
Location:  46.87°N, 122.27°W
Report Text: KGRF 242258Z AUTO VRB02KT 10SM DZ FEW026 SCT070 09/08 A3021 RMK AO2 RAB2231E2241DZB2207 SLP236 P0001 T00870083 $
Loading
Personal Weather Stations






























Interactive Weather Map New forecast layout! Learn more

10-Day Weather Forecast

Advertisements
Track Severe Weather on mobile